< < Back
Terminal Aerodrome Forecast


Current Version              Previous Versions:   1  2  3  4  5  6  7  8  9  

Terminal Aerodrome Forecast

715
FTUS42 KFFC 012340
TAFMCN
TAF
KMCN 012340Z 0200/0224 32006KT P6SM FEW100
     FM021400 28003KT P6SM SKC
     FM021600 26008KT P6SM SCT060
     FM022200 28006KT P6SM FEW250=

Latest METAR

470
SAUS80 KWBC 020300 RRE
MTRMCN
METAR KMCN 020253Z AUTO 00000KT 10SM CLR 26/21 A3000 RMK AO2 SLP152
T02560211 53013 TSNO


USA.gov is the U.S. government's official web portal to all federal, state and local government web resources and services.